createdAt,value
2023-02-11T00:00:39.919Z,64.84
2023-02-11T00:03:09.901Z,63.68
2023-02-11T00:05:49.037Z,63.24
2023-02-11T00:08:23.860Z,63.54
2023-02-11T00:11:11.300Z,64.52
2023-02-11T00:14:07.288Z,63.12
2023-02-11T00:16:53.987Z,62.81
2023-02-11T00:19:26.961Z,63.13
2023-02-11T00:21:57.227Z,63.09
2023-02-11T00:24:30.102Z,62.94
2023-02-11T00:27:04.646Z,63.02
2023-02-11T00:29:41.724Z,63.02
2023-02-11T00:32:11.516Z,65.99
2023-02-11T00:34:47.713Z,62.64
2023-02-11T00:37:26.749Z,62.59
2023-02-11T00:39:56.655Z,61.68
2023-02-11T00:42:25.629Z,62.92
2023-02-11T00:44:53.182Z,62.86
2023-02-11T00:47:19.840Z,61.72
2023-02-11T00:49:46.503Z,61.28
2023-02-11T00:52:27.905Z,63.37
2023-02-11T00:54:54.525Z,62.05
2023-02-11T00:57:22.910Z,61.50
2023-02-11T00:59:49.670Z,61.99
2023-02-11T01:02:24.334Z,62.27
2023-02-11T01:04:56.735Z,62.18
2023-02-11T01:07:33.705Z,62.48
2023-02-11T01:10:26.862Z,60.33
2023-02-11T01:12:53.478Z,62.54
2023-02-11T01:15:20.431Z,63.31
2023-02-11T01:17:50.070Z,62.75
2023-02-11T01:20:20.384Z,62.29
2023-02-11T01:22:46.998Z,62.85
2023-02-11T01:25:26.957Z,69.27
2023-02-11T01:27:53.661Z,63.20
2023-02-11T01:30:20.256Z,63.54
2023-02-11T01:33:06.499Z,68.97
2023-02-11T01:35:38.756Z,63.85
2023-02-11T01:38:07.186Z,64.19
2023-02-11T01:40:34.215Z,63.65
2023-02-11T01:43:11.116Z,65.04
2023-02-11T01:45:51.460Z,66.97
2023-02-11T01:48:25.877Z,64.74
2023-02-11T01:50:59.545Z,64.63
2023-02-11T01:53:26.608Z,64.73
2023-02-11T01:55:54.200Z,65.72
2023-02-11T01:58:21.214Z,65.71
2023-02-11T02:00:48.307Z,65.36
2023-02-11T02:03:22.570Z,64.34
2023-02-11T02:06:00.586Z,65.06
2023-02-11T02:08:38.134Z,63.86
2023-02-11T02:11:05.647Z,63.52
2023-02-11T02:13:37.129Z,63.86
2023-02-11T02:16:10.188Z,63.67
2023-02-11T02:19:03.949Z,64.17
2023-02-11T02:21:31.007Z,64.81
2023-02-11T02:24:37.401Z,63.40
2023-02-11T02:27:50.737Z,61.66
2023-02-11T02:30:49.130Z,63.73
2023-02-11T02:33:30.077Z,62.45
2023-02-11T02:36:25.883Z,63.39
2023-02-11T02:39:13.634Z,63.93
2023-02-11T02:41:50.480Z,63.50
2023-02-11T02:44:31.318Z,62.99
2023-02-11T02:46:58.404Z,63.90
2023-02-11T02:49:25.361Z,63.08
2023-02-11T02:52:30.998Z,62.09
2023-02-11T02:55:23.080Z,61.92
2023-02-11T02:58:10.418Z,62.24
2023-02-11T03:01:01.805Z,62.68
2023-02-11T03:03:43.505Z,62.59
2023-02-11T03:06:36.406Z,63.44
2023-02-11T03:09:14.642Z,63.45
2023-02-11T03:11:41.461Z,63.98
2023-02-11T03:14:24.619Z,64.51
2023-02-11T03:16:57.768Z,64.70
2023-02-11T03:19:35.292Z,64.54
2023-02-11T03:22:07.796Z,64.11
2023-02-11T03:24:52.041Z,65.30
2023-02-11T03:27:31.821Z,64.15
2023-02-11T03:30:13.659Z,64.34
2023-02-11T03:33:05.030Z,64.79
2023-02-11T03:36:04.852Z,64.05
2023-02-11T03:38:36.527Z,64.39
2023-02-11T03:41:08.057Z,68.92
2023-02-11T03:44:01.736Z,63.80
2023-02-11T03:46:40.702Z,64.89
2023-02-11T03:49:20.787Z,63.62
2023-02-11T03:51:53.024Z,63.65
2023-02-11T03:54:27.147Z,64.12
2023-02-11T03:56:58.081Z,64.26
2023-02-11T03:59:30.167Z,63.37
2023-02-11T04:02:00.199Z,62.92
2023-02-11T04:04:35.688Z,62.80
2023-02-11T04:07:02.340Z,62.77
2023-02-11T04:09:28.949Z,63.26
2023-02-11T04:12:04.162Z,63.33
2023-02-11T04:14:32.995Z,63.56
2023-02-11T04:16:59.646Z,63.29
2023-02-11T04:19:26.520Z,63.51
2023-02-11T04:21:53.198Z,63.52
2023-02-11T04:24:28.608Z,63.83
2023-02-11T04:26:59.246Z,64.46
2023-02-11T04:29:28.821Z,63.22
2023-02-11T04:31:58.456Z,62.80
2023-02-11T04:34:27.734Z,62.62
2023-02-11T04:36:57.633Z,62.38
2023-02-11T04:39:24.327Z,63.07
2023-02-11T04:41:56.949Z,62.47
2023-02-11T04:44:33.209Z,62.28
2023-02-11T04:47:04.005Z,61.90
2023-02-11T04:49:39.890Z,62.52
2023-02-11T04:52:12.764Z,62.60
2023-02-11T04:54:43.571Z,62.72
2023-02-11T04:57:10.189Z,62.94
2023-02-11T04:59:36.945Z,62.13
2023-02-11T05:02:05.407Z,60.99
2023-02-11T05:04:32.197Z,61.40
2023-02-11T05:07:06.964Z,62.59
2023-02-11T05:09:34.484Z,61.75
2023-02-11T05:12:01.206Z,61.11
2023-02-11T05:14:32.374Z,61.38
2023-02-11T05:17:10.428Z,61.22
2023-02-11T05:19:39.335Z,60.76
2023-02-11T05:22:06.031Z,61.06
2023-02-11T05:24:38.944Z,62.10
2023-02-11T05:27:05.607Z,61.34
2023-02-11T05:29:39.724Z,62.18
2023-02-11T05:32:06.412Z,62.48
2023-02-11T05:34:36.261Z,62.72
2023-02-11T05:37:06.133Z,62.57
2023-02-11T05:39:32.740Z,62.74
2023-02-11T05:41:59.369Z,62.34
2023-02-11T05:44:27.284Z,62.85
2023-02-11T05:46:53.922Z,62.45
2023-02-11T05:49:20.538Z,63.09
2023-02-11T05:51:47.473Z,63.55
2023-02-11T05:54:16.178Z,63.44
2023-02-11T05:56:44.790Z,64.28
2023-02-11T05:59:15.516Z,65.28
2023-02-11T06:01:42.134Z,65.07
2023-02-11T06:04:09.121Z,64.04
2023-02-11T06:06:35.797Z,64.42
2023-02-11T06:09:02.673Z,64.49
2023-02-11T06:11:31.904Z,64.82
2023-02-11T06:13:58.469Z,64.89
2023-02-11T06:16:31.604Z,64.67
2023-02-11T06:19:02.497Z,65.87
2023-02-11T06:21:42.723Z,65.21
2023-02-11T06:24:44.325Z,64.83
2023-02-11T06:27:07.534Z,65.38
2023-02-11T06:29:34.175Z,66.44
2023-02-11T06:32:04.580Z,65.92
2023-02-11T06:34:34.162Z,65.35
2023-02-11T06:37:07.280Z,65.50
2023-02-11T06:39:39.185Z,65.97
2023-02-11T06:42:08.679Z,65.63
2023-02-11T06:44:35.325Z,65.81
2023-02-11T06:47:12.099Z,65.95
2023-02-11T06:49:38.698Z,65.50
2023-02-11T06:52:05.370Z,65.38
2023-02-11T06:54:34.296Z,64.14
2023-02-11T06:57:01.050Z,63.33
2023-02-11T06:59:33.152Z,64.61
2023-02-11T07:02:01.407Z,64.63
2023-02-11T07:04:28.125Z,64.53
2023-02-11T07:06:57.972Z,66.37
2023-02-11T07:09:24.719Z,64.59
2023-02-11T07:11:57.100Z,63.54
2023-02-11T07:14:23.850Z,65.30
2023-02-11T07:16:57.863Z,64.33
2023-02-11T07:19:24.594Z,64.91
2023-02-11T07:21:51.264Z,64.17
2023-02-11T07:24:20.190Z,58.79
2023-02-11T07:26:47.860Z,59.73
2023-02-11T07:29:18.396Z,55.38
2023-02-11T07:31:45.401Z,60.02
2023-02-11T07:34:12.111Z,57.40
2023-02-11T07:36:38.720Z,56.94
2023-02-11T07:39:05.407Z,62.98
2023-02-11T07:41:44.953Z,54.26
2023-02-11T07:44:17.905Z,54.46
2023-02-11T07:46:49.020Z,53.71
2023-02-11T07:49:25.065Z,54.67
2023-02-11T07:51:55.379Z,52.81
2023-02-11T07:54:22.091Z,53.04
2023-02-11T07:56:54.448Z,52.71
2023-02-11T07:59:21.294Z,59.39
2023-02-11T08:01:48.164Z,53.72
2023-02-11T08:04:14.889Z,61.09
2023-02-11T08:06:42.883Z,52.13
2023-02-11T08:09:23.926Z,53.33
2023-02-11T08:11:50.624Z,59.92
2023-02-11T08:14:24.823Z,51.61
2023-02-11T08:19:35.336Z,50.18
2023-02-11T08:22:02.125Z,53.80
2023-02-11T08:24:30.046Z,49.28
2023-02-11T08:26:56.715Z,48.20
2023-02-11T08:29:23.491Z,52.11
2023-02-11T08:31:50.330Z,48.93
2023-02-11T08:34:17.670Z,54.20
2023-02-11T08:36:49.398Z,49.46
2023-02-11T08:39:22.524Z,54.90
2023-02-11T08:41:57.010Z,46.70
2023-02-11T08:44:25.086Z,51.33
2023-02-11T08:52:28.108Z,47.45
2023-02-11T08:54:58.293Z,50.01
2023-02-11T08:57:34.922Z,46.69
2023-02-11T09:00:13.869Z,48.77
2023-02-11T09:02:47.076Z,52.02
2023-02-11T09:05:14.288Z,51.46
2023-02-11T09:07:50.171Z,54.20
2023-02-11T09:10:16.959Z,48.72
2023-02-11T09:12:46.600Z,49.83
2023-02-11T09:15:23.383Z,49.71
2023-02-11T09:17:50.057Z,51.42
2023-02-11T09:20:18.701Z,49.19
2023-02-11T09:22:48.658Z,46.58
2023-02-11T09:25:22.943Z,47.94
2023-02-11T09:27:58.243Z,46.96
2023-02-11T09:30:27.763Z,46.36
2023-02-11T09:33:22.074Z,49.34
2023-02-11T09:35:51.598Z,48.52
2023-02-11T09:38:23.167Z,47.80
2023-02-11T09:40:50.154Z,48.62
2023-02-11T09:43:35.875Z,52.21
2023-02-11T09:48:45.730Z,48.28
2023-02-11T09:51:35.193Z,52.02
2023-02-11T09:54:23.925Z,47.25
2023-02-11T09:56:53.031Z,49.77
2023-02-11T09:59:24.975Z,47.15
2023-02-11T10:01:59.113Z,47.50
2023-02-11T10:04:47.638Z,48.65
2023-02-11T10:07:41.936Z,47.34
2023-02-11T10:10:27.514Z,49.00
2023-02-11T10:12:56.716Z,53.20
2023-02-11T10:15:55.502Z,50.74
2023-02-11T10:18:42.351Z,47.64
2023-02-11T10:21:27.294Z,49.54
2023-02-11T10:23:59.285Z,52.19
2023-02-11T10:26:30.192Z,48.60
2023-02-11T10:29:02.003Z,49.35
2023-02-11T10:31:41.481Z,48.32
2023-02-11T10:34:13.199Z,45.26
2023-02-11T10:36:47.366Z,49.44
2023-02-11T10:39:26.144Z,50.28
2023-02-11T10:41:58.704Z,47.85
2023-02-11T10:44:37.671Z,46.78
2023-02-11T10:47:27.916Z,46.00
2023-02-11T10:50:00.949Z,48.70
2023-02-11T10:52:43.680Z,48.16
2023-02-11T10:55:14.340Z,47.99
2023-02-11T10:57:55.662Z,46.76
2023-02-11T11:00:38.904Z,46.24
2023-02-11T11:03:21.315Z,42.87
2023-02-11T11:06:15.916Z,42.21
2023-02-11T11:08:52.642Z,48.26
2023-02-11T11:11:35.620Z,47.94
2023-02-11T11:14:02.543Z,45.06
2023-02-11T11:16:30.827Z,42.63
2023-02-11T11:19:09.340Z,50.01
2023-02-11T11:21:53.903Z,42.98
2023-02-11T11:24:22.297Z,44.45
2023-02-11T11:26:52.402Z,42.67
2023-02-11T11:29:42.665Z,43.50
2023-02-11T11:32:15.014Z,47.62
2023-02-11T11:34:43.905Z,46.51
2023-02-11T11:37:20.709Z,43.77
2023-02-11T11:40:19.338Z,45.09
2023-02-11T11:42:46.066Z,42.27
2023-02-11T11:45:15.782Z,45.52
2023-02-11T11:48:13.434Z,43.05
2023-02-11T11:50:44.281Z,46.91
2023-02-11T11:53:21.250Z,44.00
2023-02-11T11:56:03.584Z,45.41
2023-02-11T11:58:33.046Z,42.88
2023-02-11T12:01:25.135Z,42.70
2023-02-11T12:04:30.345Z,43.05
2023-02-11T12:07:40.195Z,46.75
2023-02-11T12:10:40.120Z,42.15
2023-02-11T12:13:29.945Z,47.83
2023-02-11T12:16:31.941Z,41.21
2023-02-11T12:19:26.907Z,47.51
2023-02-11T12:22:10.541Z,42.11
2023-02-11T12:24:37.116Z,40.94
2023-02-11T12:27:27.089Z,48.24
2023-02-11T12:30:15.109Z,41.90
2023-02-11T12:32:50.754Z,47.49
2023-02-11T12:35:26.815Z,43.53
2023-02-11T12:38:05.312Z,43.00
2023-02-11T12:41:02.130Z,43.48
2023-02-11T12:43:40.497Z,40.44
2023-02-11T12:46:47.065Z,46.13
2023-02-11T12:49:31.365Z,40.44
2023-02-11T12:52:18.960Z,41.94
2023-02-11T12:55:04.407Z,47.64
2023-02-11T12:57:40.625Z,41.02
2023-02-11T13:00:13.749Z,46.48
2023-02-11T13:02:48.606Z,41.93
2023-02-11T13:05:40.379Z,40.27
2023-02-11T13:08:35.560Z,40.67
2023-02-11T13:11:14.476Z,42.54
2023-02-11T13:14:09.365Z,43.33
2023-02-11T13:16:44.435Z,43.17
2023-02-11T13:19:14.233Z,47.28
2023-02-11T13:22:29.533Z,47.44
2023-02-11T13:25:06.836Z,40.46
2023-02-11T13:28:06.217Z,41.07
2023-02-11T13:30:45.567Z,43.52
2023-02-11T13:33:32.266Z,45.15
2023-02-11T13:36:04.352Z,40.40
2023-02-11T13:38:38.438Z,41.10
2023-02-11T13:41:29.988Z,41.04
2023-02-11T13:44:02.475Z,44.72
2023-02-11T13:46:47.923Z,41.36
2023-02-11T13:49:29.773Z,41.22
2023-02-11T13:51:57.321Z,43.95
2023-02-11T13:54:29.371Z,46.08
2023-02-11T13:57:21.191Z,46.00
2023-02-11T13:59:49.395Z,45.42
2023-02-11T14:02:47.659Z,48.13
2023-02-11T14:05:20.486Z,44.07
2023-02-11T14:08:12.205Z,44.05
2023-02-11T14:10:45.717Z,41.84
2023-02-11T14:13:32.570Z,43.39
2023-02-11T14:16:17.087Z,42.54
2023-02-11T14:18:58.182Z,46.03
2023-02-11T14:21:28.056Z,43.80
2023-02-11T14:24:22.184Z,41.23
2023-02-11T14:27:04.580Z,41.99
2023-02-11T14:29:41.034Z,42.66
2023-02-11T14:32:45.472Z,42.39
2023-02-11T14:35:41.234Z,46.71
2023-02-11T14:38:32.579Z,45.27
2023-02-11T14:41:31.657Z,47.74
2023-02-11T14:44:19.472Z,43.20
2023-02-11T14:47:02.715Z,47.75
2023-02-11T14:49:35.772Z,48.34
2023-02-11T14:55:09.358Z,49.25
2023-02-11T14:57:43.183Z,42.77
2023-02-11T15:00:23.452Z,44.14
2023-02-11T15:02:50.224Z,49.64
2023-02-11T15:05:23.693Z,46.95
2023-02-11T15:10:44.818Z,48.30
2023-02-11T15:13:30.773Z,49.49
2023-02-11T15:16:09.459Z,42.12
2023-02-11T15:19:04.875Z,43.42
2023-02-11T15:21:37.221Z,47.68
2023-02-11T15:24:30.969Z,49.52
2023-02-11T15:27:24.051Z,49.65
2023-02-11T15:29:56.191Z,43.26
2023-02-11T15:32:29.007Z,43.71
2023-02-11T15:35:00.702Z,43.64
2023-02-11T15:37:30.706Z,43.31
2023-02-11T15:40:16.184Z,43.54
2023-02-11T15:43:00.569Z,44.17
2023-02-11T15:46:06.189Z,46.35
2023-02-11T15:48:58.974Z,43.59
2023-02-11T15:51:36.622Z,45.17
2023-02-11T15:54:23.927Z,44.38
2023-02-11T15:57:04.342Z,45.30
2023-02-11T15:59:45.785Z,43.67
2023-02-11T16:02:39.583Z,44.07
2023-02-11T16:05:32.265Z,45.35
2023-02-11T16:08:23.053Z,45.14
2023-02-11T16:11:03.933Z,47.04
2023-02-11T16:13:45.112Z,46.48
2023-02-11T16:16:27.959Z,47.17
2023-02-11T16:19:05.986Z,47.10
2023-02-11T16:21:41.685Z,46.20
2023-02-11T16:24:16.162Z,47.05
2023-02-11T16:26:55.856Z,46.37
2023-02-11T16:29:31.709Z,47.39
2023-02-11T16:32:32.338Z,47.70
2023-02-11T16:35:14.988Z,48.63
2023-02-11T16:37:41.670Z,49.75
2023-02-11T16:40:09.725Z,51.13
2023-02-11T16:42:36.450Z,50.84
2023-02-11T16:45:03.532Z,50.97
2023-02-11T16:47:37.805Z,51.58
2023-02-11T16:50:09.763Z,52.15
2023-02-11T16:52:40.346Z,51.97
2023-02-11T16:55:07.151Z,52.37
2023-02-11T16:57:36.680Z,54.92
2023-02-11T17:00:06.936Z,51.72
2023-02-11T17:02:38.608Z,51.73
2023-02-11T17:05:08.779Z,54.07
2023-02-11T17:07:35.472Z,54.47
2023-02-11T17:12:33.760Z,56.44
2023-02-11T17:15:08.216Z,55.16
2023-02-11T17:17:41.538Z,54.92
2023-02-11T17:20:11.039Z,54.68
2023-02-11T17:22:40.126Z,54.69
2023-02-11T17:25:07.352Z,57.93
2023-02-11T17:27:34.094Z,57.67
2023-02-11T17:30:08.311Z,57.64
2023-02-11T17:32:37.866Z,56.70
2023-02-11T17:35:05.554Z,57.63
2023-02-11T17:37:38.384Z,56.37
2023-02-11T17:40:05.941Z,58.38
2023-02-11T17:42:34.999Z,58.07
2023-02-11T17:45:01.619Z,59.30
2023-02-11T17:47:36.793Z,59.09
2023-02-11T17:50:06.696Z,59.63
2023-02-11T17:52:35.049Z,59.58
2023-02-11T17:55:06.553Z,60.60
2023-02-11T17:57:36.600Z,60.19
2023-02-11T18:00:05.797Z,60.33
2023-02-11T18:02:43.248Z,61.81
2023-02-11T18:05:10.829Z,61.30
2023-02-11T18:07:37.680Z,60.80
2023-02-11T18:10:14.105Z,63.72
2023-02-11T18:12:40.771Z,62.85
2023-02-11T18:15:07.630Z,62.64
2023-02-11T18:17:34.354Z,61.40
2023-02-11T18:20:01.071Z,61.78
2023-02-11T18:22:35.938Z,61.70
2023-02-11T18:25:03.724Z,61.20
2023-02-11T18:27:30.790Z,61.61
2023-02-11T18:30:00.928Z,62.12
2023-02-11T18:32:27.789Z,63.80
2023-02-11T18:34:56.874Z,63.98
2023-02-11T18:37:46.588Z,62.32
2023-02-11T18:40:17.778Z,61.48
2023-02-11T18:42:50.468Z,61.72
2023-02-11T18:45:19.901Z,62.74
2023-02-11T18:47:46.569Z,62.25
2023-02-11T18:50:17.487Z,62.55
2023-02-11T18:52:49.984Z,62.22
2023-02-11T18:55:17.672Z,62.85
2023-02-11T18:57:44.391Z,63.00
2023-02-11T19:00:22.512Z,63.33
2023-02-11T19:03:00.092Z,62.98
2023-02-11T19:05:26.966Z,63.62
2023-02-11T19:07:58.579Z,64.21
2023-02-11T19:10:25.756Z,63.60
2023-02-11T19:12:56.465Z,64.61
2023-02-11T19:15:23.350Z,62.23
2023-02-11T19:17:49.971Z,61.85
2023-02-11T19:20:20.278Z,61.93
2023-02-11T19:22:52.797Z,62.09
2023-02-11T19:25:22.259Z,61.00
2023-02-11T19:27:48.888Z,62.15
2023-02-11T19:30:15.554Z,60.80
2023-02-11T19:32:42.190Z,60.41
2023-02-11T19:35:10.861Z,60.81
2023-02-11T19:37:40.634Z,60.16
2023-02-11T19:40:11.006Z,59.92
2023-02-11T19:42:39.400Z,61.59
2023-02-11T19:45:08.815Z,61.96
2023-02-11T19:47:35.822Z,61.81
2023-02-11T19:50:02.782Z,63.71
2023-02-11T19:52:29.449Z,61.87
2023-02-11T19:54:59.197Z,62.08
2023-02-11T19:57:28.730Z,62.00
2023-02-11T19:59:55.409Z,60.70
2023-02-11T20:02:25.240Z,62.09
2023-02-11T20:04:51.876Z,61.56
2023-02-11T20:07:18.516Z,60.76
2023-02-11T20:09:45.337Z,60.38
2023-02-11T20:12:12.136Z,58.95
2023-02-11T20:14:47.748Z,60.46
2023-02-11T20:17:17.682Z,60.49
2023-02-11T20:19:44.291Z,62.84
2023-02-11T20:22:10.954Z,60.68
2023-02-11T20:24:37.609Z,61.01
2023-02-11T20:27:04.353Z,61.02
2023-02-11T20:29:30.981Z,61.88
2023-02-11T20:31:57.826Z,62.47
2023-02-11T20:34:24.613Z,62.57
2023-02-11T20:36:53.119Z,62.34
2023-02-11T20:39:22.062Z,62.66
2023-02-11T20:41:50.108Z,61.70
2023-02-11T20:44:20.667Z,61.61
2023-02-11T20:46:47.937Z,60.63
2023-02-11T20:49:18.940Z,61.64
2023-02-11T20:51:53.732Z,62.71
2023-02-11T20:54:36.729Z,63.55
2023-02-11T20:57:03.598Z,63.47
2023-02-11T20:59:31.070Z,62.65
2023-02-11T21:01:58.191Z,64.01
2023-02-11T21:04:30.787Z,63.99
2023-02-11T21:07:00.216Z,63.41
2023-02-11T21:09:30.052Z,63.67
2023-02-11T21:12:05.248Z,62.92
2023-02-11T21:14:40.369Z,61.77
2023-02-11T21:17:07.432Z,62.09
2023-02-11T21:19:34.112Z,62.64
2023-02-11T21:22:01.289Z,62.49
2023-02-11T21:24:31.844Z,63.64
2023-02-11T21:26:59.630Z,61.41
2023-02-11T21:29:29.929Z,61.16
2023-02-11T21:32:02.167Z,60.59
2023-02-11T21:34:36.858Z,59.94
2023-02-11T21:37:07.622Z,60.33
2023-02-11T21:39:34.329Z,61.46
2023-02-11T21:42:30.061Z,62.88
2023-02-11T21:44:57.488Z,62.35
2023-02-11T21:47:31.595Z,62.26
2023-02-11T21:50:01.249Z,63.27
2023-02-11T21:52:31.344Z,63.76
2023-02-11T21:54:57.977Z,63.30
2023-02-11T21:57:25.027Z,63.80
2023-02-11T21:59:54.857Z,64.99
2023-02-11T22:02:23.527Z,65.77
2023-02-11T22:04:52.840Z,65.93
2023-02-11T22:07:25.886Z,65.86
2023-02-11T22:10:00.724Z,65.87
2023-02-11T22:12:36.828Z,65.61
2023-02-11T22:15:03.664Z,65.84
2023-02-11T22:17:30.639Z,66.17
2023-02-11T22:20:13.744Z,65.79
2023-02-11T22:22:53.217Z,65.70
2023-02-11T22:25:29.622Z,66.36
2023-02-11T22:27:57.257Z,67.54
2023-02-11T22:30:25.264Z,67.08
2023-02-11T22:32:51.969Z,67.04
2023-02-11T22:35:18.656Z,67.63
2023-02-11T22:37:45.480Z,69.00
2023-02-11T22:40:12.973Z,67.97
2023-02-11T22:42:48.155Z,68.91
2023-02-11T22:45:14.859Z,67.58
2023-02-11T22:47:47.725Z,66.64
2023-02-11T22:50:14.444Z,66.66
2023-02-11T22:52:44.514Z,66.92
2023-02-11T22:55:22.094Z,67.81
2023-02-11T22:57:53.253Z,67.17
2023-02-11T23:00:30.903Z,68.11
2023-02-11T23:03:00.237Z,67.72
2023-02-11T23:05:29.748Z,67.70
2023-02-11T23:07:59.615Z,67.66
2023-02-11T23:10:31.907Z,67.36
2023-02-11T23:13:03.688Z,67.52
2023-02-11T23:15:33.927Z,66.81
2023-02-11T23:18:00.807Z,67.67
2023-02-11T23:20:27.615Z,68.04
2023-02-11T23:23:11.690Z,66.80
2023-02-11T23:25:47.509Z,66.07
2023-02-11T23:28:16.936Z,66.60
2023-02-11T23:30:54.903Z,66.47
2023-02-11T23:33:22.218Z,66.21
2023-02-11T23:35:52.194Z,66.40
2023-02-11T23:38:34.888Z,66.77
2023-02-11T23:41:07.748Z,66.09
2023-02-11T23:43:40.195Z,66.09
2023-02-11T23:46:10.117Z,66.58
2023-02-11T23:48:45.852Z,66.19
2023-02-11T23:51:12.833Z,66.38
2023-02-11T23:53:45.367Z,67.03
2023-02-11T23:56:22.885Z,67.21
2023-02-11T23:58:56.312Z,66.11
